sensor_id;sensor_type;location;lat;lon;timestamp;temperature;humidity
51996;DHT22;38010;53.264;6.592;2022-12-29T00:01:31;12.90;99.90
51996;DHT22;38010;53.264;6.592;2022-12-29T00:03:57;12.90;99.90
51996;DHT22;38010;53.264;6.592;2022-12-29T00:06:23;12.90;99.90
51996;DHT22;38010;53.264;6.592;2022-12-29T00:08:49;12.90;99.90
51996;DHT22;38010;53.264;6.592;2022-12-29T00:11:17;12.90;99.90
51996;DHT22;38010;53.264;6.592;2022-12-29T00:13:43;12.90;99.90
51996;DHT22;38010;53.264;6.592;2022-12-29T00:16:28;12.90;99.90
51996;DHT22;38010;53.264;6.592;2022-12-29T00:18:54;12.90;99.90
51996;DHT22;38010;53.264;6.592;2022-12-29T00:21:22;12.90;99.90
51996;DHT22;38010;53.264;6.592;2022-12-29T00:24:09;12.90;99.90
51996;DHT22;38010;53.264;6.592;2022-12-29T00:29:41;12.90;99.90
51996;DHT22;38010;53.264;6.592;2022-12-29T00:32:25;12.90;99.90
51996;DHT22;38010;53.264;6.592;2022-12-29T00:35:12;12.90;99.90
51996;DHT22;38010;53.264;6.592;2022-12-29T00:37:42;12.90;99.90
51996;DHT22;38010;53.264;6.592;2022-12-29T00:40:27;12.90;99.90
51996;DHT22;38010;53.264;6.592;2022-12-29T00:43:11;12.90;99.90
51996;DHT22;38010;53.264;6.592;2022-12-29T00:45:56;12.90;99.90
51996;DHT22;38010;53.264;6.592;2022-12-29T00:48:22;12.80;99.90
51996;DHT22;38010;53.264;6.592;2022-12-29T00:51:07;12.90;99.90
51996;DHT22;38010;53.264;6.592;2022-12-29T00:53:33;12.90;99.90
51996;DHT22;38010;53.264;6.592;2022-12-29T00:55:58;12.90;99.90
51996;DHT22;38010;53.264;6.592;2022-12-29T00:58:30;12.80;99.90
51996;DHT22;38010;53.264;6.592;2022-12-29T01:01:07;12.90;99.90
51996;DHT22;38010;53.264;6.592;2022-12-29T01:03:34;12.90;99.90
51996;DHT22;38010;53.264;6.592;2022-12-29T01:06:02;12.90;99.90
51996;DHT22;38010;53.264;6.592;2022-12-29T01:08:28;12.80;99.90
51996;DHT22;38010;53.264;6.592;2022-12-29T01:11:08;12.90;99.90
51996;DHT22;38010;53.264;6.592;2022-12-29T01:13:35;12.80;99.90
51996;DHT22;38010;53.264;6.592;2022-12-29T01:16:01;12.80;99.90
51996;DHT22;38010;53.264;6.592;2022-12-29T01:18:27;12.80;99.90
51996;DHT22;38010;53.264;6.592;2022-12-29T01:21:04;12.90;99.90
51996;DHT22;38010;53.264;6.592;2022-12-29T01:23:31;12.80;99.90
51996;DHT22;38010;53.264;6.592;2022-12-29T01:25:57;12.90;99.90
51996;DHT22;38010;53.264;6.592;2022-12-29T01:28:33;12.80;99.90
51996;DHT22;38010;53.264;6.592;2022-12-29T01:31:00;12.80;99.90
51996;DHT22;38010;53.264;6.592;2022-12-29T01:33:26;12.90;99.90
51996;DHT22;38010;53.264;6.592;2022-12-29T01:35:52;12.90;99.90
51996;DHT22;38010;53.264;6.592;2022-12-29T01:38:17;12.90;99.90
51996;DHT22;38010;53.264;6.592;2022-12-29T01:40:44;12.90;99.90
51996;DHT22;38010;53.264;6.592;2022-12-29T01:43:12;12.80;99.90
51996;DHT22;38010;53.264;6.592;2022-12-29T01:45:47;12.80;99.90
51996;DHT22;38010;53.264;6.592;2022-12-29T01:48:13;12.90;99.90
51996;DHT22;38010;53.264;6.592;2022-12-29T01:50:45;12.80;99.90
51996;DHT22;38010;53.264;6.592;2022-12-29T01:53:17;12.80;99.90
51996;DHT22;38010;53.264;6.592;2022-12-29T01:55:49;12.80;99.90
51996;DHT22;38010;53.264;6.592;2022-12-29T01:58:20;12.80;99.90
51996;DHT22;38010;53.264;6.592;2022-12-29T02:00:47;12.80;99.90
51996;DHT22;38010;53.264;6.592;2022-12-29T02:03:13;12.90;99.90
51996;DHT22;38010;53.264;6.592;2022-12-29T02:08:28;12.80;99.90
51996;DHT22;38010;53.264;6.592;2022-12-29T02:10:56;12.80;99.90
51996;DHT22;38010;53.264;6.592;2022-12-29T02:13:24;12.80;99.90
51996;DHT22;38010;53.264;6.592;2022-12-29T02:32:32;12.80;99.90
51996;DHT22;38010;53.264;6.592;2022-12-29T02:38:08;12.80;99.90
51996;DHT22;38010;53.264;6.592;2022-12-29T02:40:51;12.90;99.90
51996;DHT22;38010;53.264;6.592;2022-12-29T02:43:46;12.90;99.90
51996;DHT22;38010;53.264;6.592;2022-12-29T02:49:15;12.90;99.90
51996;DHT22;38010;53.264;6.592;2022-12-29T02:54:28;12.90;99.90
51996;DHT22;38010;53.264;6.592;2022-12-29T02:57:29;12.90;99.90
51996;DHT22;38010;53.264;6.592;2022-12-29T03:00:03;12.80;99.90
51996;DHT22;38010;53.264;6.592;2022-12-29T03:08:48;12.80;99.90
51996;DHT22;38010;53.264;6.592;2022-12-29T03:11:15;12.90;99.90
51996;DHT22;38010;53.264;6.592;2022-12-29T03:14:32;12.90;99.90
51996;DHT22;38010;53.264;6.592;2022-12-29T03:19:59;12.90;99.90
51996;DHT22;38010;53.264;6.592;2022-12-29T03:22:29;12.90;99.90
51996;DHT22;38010;53.264;6.592;2022-12-29T03:25:15;12.90;99.90
51996;DHT22;38010;53.264;6.592;2022-12-29T03:27:45;12.90;99.90
51996;DHT22;38010;53.264;6.592;2022-12-29T03:30:13;12.80;99.90
51996;DHT22;38010;53.264;6.592;2022-12-29T03:32:42;12.90;99.90
51996;DHT22;38010;53.264;6.592;2022-12-29T03:35:12;12.90;99.90
51996;DHT22;38010;53.264;6.592;2022-12-29T03:37:43;12.90;99.90
51996;DHT22;38010;53.264;6.592;2022-12-29T03:40:11;12.80;99.90
51996;DHT22;38010;53.264;6.592;2022-12-29T03:42:38;12.90;99.90
51996;DHT22;38010;53.264;6.592;2022-12-29T03:45:06;12.90;99.90
51996;DHT22;38010;53.264;6.592;2022-12-29T03:47:32;12.80;99.90
51996;DHT22;38010;53.264;6.592;2022-12-29T03:49:58;12.90;99.90
51996;DHT22;38010;53.264;6.592;2022-12-29T03:52:24;12.90;99.90
51996;DHT22;38010;53.264;6.592;2022-12-29T03:54:49;12.90;99.90
51996;DHT22;38010;53.264;6.592;2022-12-29T03:57:15;12.90;99.90
51996;DHT22;38010;53.264;6.592;2022-12-29T03:59:41;12.90;99.90
51996;DHT22;38010;53.264;6.592;2022-12-29T04:02:06;12.90;99.90
51996;DHT22;38010;53.264;6.592;2022-12-29T04:04:32;12.90;99.90
51996;DHT22;38010;53.264;6.592;2022-12-29T04:06:58;12.90;99.90
51996;DHT22;38010;53.264;6.592;2022-12-29T04:09:23;12.90;99.90
51996;DHT22;38010;53.264;6.592;2022-12-29T04:11:49;12.90;99.90
51996;DHT22;38010;53.264;6.592;2022-12-29T04:14:15;12.80;99.90
51996;DHT22;38010;53.264;6.592;2022-12-29T04:16:41;12.90;99.90
51996;DHT22;38010;53.264;6.592;2022-12-29T04:19:07;12.80;99.90
51996;DHT22;38010;53.264;6.592;2022-12-29T04:21:33;12.80;99.90
51996;DHT22;38010;53.264;6.592;2022-12-29T04:23:58;12.90;99.90
51996;DHT22;38010;53.264;6.592;2022-12-29T04:26:25;12.90;99.90
51996;DHT22;38010;53.264;6.592;2022-12-29T04:28:50;12.90;99.90
51996;DHT22;38010;53.264;6.592;2022-12-29T04:31:16;12.80;99.90
51996;DHT22;38010;53.264;6.592;2022-12-29T04:33:42;12.80;99.90
51996;DHT22;38010;53.264;6.592;2022-12-29T04:36:07;12.80;99.90
51996;DHT22;38010;53.264;6.592;2022-12-29T04:38:33;12.80;99.90
51996;DHT22;38010;53.264;6.592;2022-12-29T04:41:00;12.80;99.90
51996;DHT22;38010;53.264;6.592;2022-12-29T04:43:26;12.80;99.90
51996;DHT22;38010;53.264;6.592;2022-12-29T04:45:51;12.80;99.90
51996;DHT22;38010;53.264;6.592;2022-12-29T04:48:17;12.80;99.90
51996;DHT22;38010;53.264;6.592;2022-12-29T04:50:43;12.80;99.90
51996;DHT22;38010;53.264;6.592;2022-12-29T04:53:09;12.80;99.90
51996;DHT22;38010;53.264;6.592;2022-12-29T04:55:35;12.80;99.90
51996;DHT22;38010;53.264;6.592;2022-12-29T04:58:01;12.80;99.90
51996;DHT22;38010;53.264;6.592;2022-12-29T05:00:26;12.80;99.90
51996;DHT22;38010;53.264;6.592;2022-12-29T05:02:52;12.80;99.90
51996;DHT22;38010;53.264;6.592;2022-12-29T05:05:18;12.80;99.90
51996;DHT22;38010;53.264;6.592;2022-12-29T05:07:44;12.80;99.90
51996;DHT22;38010;53.264;6.592;2022-12-29T05:10:10;12.80;99.90
51996;DHT22;38010;53.264;6.592;2022-12-29T05:12:36;12.80;99.90
51996;DHT22;38010;53.264;6.592;2022-12-29T05:15:04;12.80;99.90
51996;DHT22;38010;53.264;6.592;2022-12-29T05:17:30;12.80;99.90
51996;DHT22;38010;53.264;6.592;2022-12-29T05:19:56;12.80;99.90
51996;DHT22;38010;53.264;6.592;2022-12-29T05:22:22;12.80;99.90
51996;DHT22;38010;53.264;6.592;2022-12-29T05:24:48;12.80;99.90
51996;DHT22;38010;53.264;6.592;2022-12-29T05:27:14;12.80;99.90
51996;DHT22;38010;53.264;6.592;2022-12-29T05:29:39;12.80;99.90
51996;DHT22;38010;53.264;6.592;2022-12-29T05:32:05;12.80;99.90
51996;DHT22;38010;53.264;6.592;2022-12-29T05:34:31;12.80;99.90
51996;DHT22;38010;53.264;6.592;2022-12-29T05:36:57;12.80;99.90
51996;DHT22;38010;53.264;6.592;2022-12-29T05:39:22;12.80;99.90
51996;DHT22;38010;53.264;6.592;2022-12-29T05:41:48;12.80;99.90
51996;DHT22;38010;53.264;6.592;2022-12-29T05:44:14;12.80;99.90
51996;DHT22;38010;53.264;6.592;2022-12-29T05:46:39;12.80;99.90
51996;DHT22;38010;53.264;6.592;2022-12-29T05:49:05;12.80;99.90
51996;DHT22;38010;53.264;6.592;2022-12-29T05:51:31;12.80;99.90
51996;DHT22;38010;53.264;6.592;2022-12-29T05:53:57;12.80;99.90
51996;DHT22;38010;53.264;6.592;2022-12-29T05:56:23;12.80;99.90
51996;DHT22;38010;53.264;6.592;2022-12-29T05:58:48;12.80;99.90
51996;DHT22;38010;53.264;6.592;2022-12-29T06:01:14;12.80;99.90
51996;DHT22;38010;53.264;6.592;2022-12-29T06:03:40;12.80;99.90
51996;DHT22;38010;53.264;6.592;2022-12-29T06:06:06;12.80;99.90
51996;DHT22;38010;53.264;6.592;2022-12-29T06:08:32;12.80;99.90
51996;DHT22;38010;53.264;6.592;2022-12-29T06:10:58;12.80;99.90
51996;DHT22;38010;53.264;6.592;2022-12-29T06:13:24;12.80;99.90
51996;DHT22;38010;53.264;6.592;2022-12-29T06:15:50;12.80;99.90
51996;DHT22;38010;53.264;6.592;2022-12-29T06:18:16;12.80;99.90
51996;DHT22;38010;53.264;6.592;2022-12-29T06:20:42;12.80;99.90
51996;DHT22;38010;53.264;6.592;2022-12-29T06:23:07;13.00;99.90
51996;DHT22;38010;53.264;6.592;2022-12-29T06:25:33;12.80;99.90
51996;DHT22;38010;53.264;6.592;2022-12-29T06:27:59;12.80;99.90
51996;DHT22;38010;53.264;6.592;2022-12-29T06:30:26;12.80;99.90
51996;DHT22;38010;53.264;6.592;2022-12-29T06:32:52;12.80;99.90
51996;DHT22;38010;53.264;6.592;2022-12-29T06:35:18;12.80;99.90
51996;DHT22;38010;53.264;6.592;2022-12-29T06:37:43;12.70;99.90
51996;DHT22;38010;53.264;6.592;2022-12-29T06:40:10;12.80;99.90
51996;DHT22;38010;53.264;6.592;2022-12-29T06:42:37;12.80;99.90
51996;DHT22;38010;53.264;6.592;2022-12-29T06:45:03;12.80;99.90
51996;DHT22;38010;53.264;6.592;2022-12-29T06:47:28;12.80;99.90
51996;DHT22;38010;53.264;6.592;2022-12-29T06:49:54;12.80;99.90
51996;DHT22;38010;53.264;6.592;2022-12-29T06:52:20;12.70;99.90
51996;DHT22;38010;53.264;6.592;2022-12-29T06:54:46;12.80;99.90
51996;DHT22;38010;53.264;6.592;2022-12-29T06:57:11;12.70;99.90
51996;DHT22;38010;53.264;6.592;2022-12-29T06:59:37;12.70;99.90
51996;DHT22;38010;53.264;6.592;2022-12-29T07:02:03;12.80;99.90
51996;DHT22;38010;53.264;6.592;2022-12-29T07:04:29;12.80;99.90
51996;DHT22;38010;53.264;6.592;2022-12-29T07:06:55;12.80;99.90
51996;DHT22;38010;53.264;6.592;2022-12-29T07:09:20;12.80;99.90
51996;DHT22;38010;53.264;6.592;2022-12-29T07:11:46;12.70;99.90
51996;DHT22;38010;53.264;6.592;2022-12-29T07:14:12;12.70;99.90
51996;DHT22;38010;53.264;6.592;2022-12-29T07:16:38;12.70;99.90
51996;DHT22;38010;53.264;6.592;2022-12-29T07:19:04;12.70;99.90
51996;DHT22;38010;53.264;6.592;2022-12-29T07:21:30;12.70;99.90
51996;DHT22;38010;53.264;6.592;2022-12-29T07:23:55;12.70;99.90
51996;DHT22;38010;53.264;6.592;2022-12-29T07:26:21;12.80;99.90
51996;DHT22;38010;53.264;6.592;2022-12-29T07:28:47;12.70;99.90
51996;DHT22;38010;53.264;6.592;2022-12-29T07:31:18;12.70;99.90
51996;DHT22;38010;53.264;6.592;2022-12-29T07:33:45;12.80;99.90
51996;DHT22;38010;53.264;6.592;2022-12-29T07:36:12;12.80;99.90
51996;DHT22;38010;53.264;6.592;2022-12-29T07:38:38;12.70;99.90
51996;DHT22;38010;53.264;6.592;2022-12-29T07:41:04;12.80;99.90
51996;DHT22;38010;53.264;6.592;2022-12-29T07:43:29;12.70;99.90
51996;DHT22;38010;53.264;6.592;2022-12-29T07:45:55;12.80;99.90
51996;DHT22;38010;53.264;6.592;2022-12-29T07:48:21;12.70;99.90
51996;DHT22;38010;53.264;6.592;2022-12-29T07:50:47;12.70;99.90
51996;DHT22;38010;53.264;6.592;2022-12-29T07:53:13;12.70;99.90
51996;DHT22;38010;53.264;6.592;2022-12-29T07:55:39;12.70;99.90
51996;DHT22;38010;53.264;6.592;2022-12-29T07:58:05;12.80;99.90
51996;DHT22;38010;53.264;6.592;2022-12-29T08:00:30;12.80;99.90
51996;DHT22;38010;53.264;6.592;2022-12-29T08:02:56;12.70;99.90
51996;DHT22;38010;53.264;6.592;2022-12-29T08:05:22;12.70;99.90
51996;DHT22;38010;53.264;6.592;2022-12-29T08:07:48;12.70;99.90
51996;DHT22;38010;53.264;6.592;2022-12-29T08:10:14;12.70;99.90
51996;DHT22;38010;53.264;6.592;2022-12-29T08:12:41;12.80;99.90
51996;DHT22;38010;53.264;6.592;2022-12-29T08:15:08;12.80;99.90
51996;DHT22;38010;53.264;6.592;2022-12-29T08:17:34;12.80;99.90
51996;DHT22;38010;53.264;6.592;2022-12-29T08:20:00;12.70;99.90
51996;DHT22;38010;53.264;6.592;2022-12-29T08:22:26;12.80;99.90
51996;DHT22;38010;53.264;6.592;2022-12-29T08:24:52;12.80;99.90
51996;DHT22;38010;53.264;6.592;2022-12-29T08:27:18;12.70;99.90
51996;DHT22;38010;53.264;6.592;2022-12-29T08:29:43;12.70;99.90
51996;DHT22;38010;53.264;6.592;2022-12-29T08:32:10;12.80;99.90
51996;DHT22;38010;53.264;6.592;2022-12-29T08:34:36;12.70;99.90
51996;DHT22;38010;53.264;6.592;2022-12-29T08:37:02;12.80;99.90
51996;DHT22;38010;53.264;6.592;2022-12-29T08:39:28;12.80;99.90
51996;DHT22;38010;53.264;6.592;2022-12-29T08:41:54;12.80;99.90
51996;DHT22;38010;53.264;6.592;2022-12-29T08:44:20;12.80;99.90
51996;DHT22;38010;53.264;6.592;2022-12-29T08:46:46;12.80;99.90
51996;DHT22;38010;53.264;6.592;2022-12-29T08:49:12;12.70;99.90
51996;DHT22;38010;53.264;6.592;2022-12-29T08:51:37;12.80;99.90
51996;DHT22;38010;53.264;6.592;2022-12-29T08:54:03;12.70;99.90
51996;DHT22;38010;53.264;6.592;2022-12-29T08:56:29;12.80;99.90
51996;DHT22;38010;53.264;6.592;2022-12-29T08:58:55;12.80;99.90
51996;DHT22;38010;53.264;6.592;2022-12-29T09:01:21;12.80;99.90
51996;DHT22;38010;53.264;6.592;2022-12-29T09:03:47;12.80;99.90
51996;DHT22;38010;53.264;6.592;2022-12-29T09:06:15;12.80;99.90
51996;DHT22;38010;53.264;6.592;2022-12-29T09:08:41;12.80;99.90
51996;DHT22;38010;53.264;6.592;2022-12-29T09:11:26;12.80;99.90
51996;DHT22;38010;53.264;6.592;2022-12-29T09:13:53;12.80;99.90
51996;DHT22;38010;53.264;6.592;2022-12-29T09:16:21;12.80;99.90
51996;DHT22;38010;53.264;6.592;2022-12-29T09:18:47;12.90;99.90
51996;DHT22;38010;53.264;6.592;2022-12-29T09:21:13;12.90;99.90
51996;DHT22;38010;53.264;6.592;2022-12-29T09:23:39;12.90;99.90
51996;DHT22;38010;53.264;6.592;2022-12-29T09:26:06;13.00;99.90
51996;DHT22;38010;53.264;6.592;2022-12-29T09:28:33;13.00;99.90
51996;DHT22;38010;53.264;6.592;2022-12-29T09:30:59;13.10;99.90
51996;DHT22;38010;53.264;6.592;2022-12-29T09:33:25;13.10;99.90
51996;DHT22;38010;53.264;6.592;2022-12-29T09:36:01;13.20;99.90
51996;DHT22;38010;53.264;6.592;2022-12-29T09:38:27;13.20;99.90
51996;DHT22;38010;53.264;6.592;2022-12-29T09:41:12;13.30;99.90
51996;DHT22;38010;53.264;6.592;2022-12-29T09:46:28;13.40;99.90
51996;DHT22;38010;53.264;6.592;2022-12-29T09:51:30;13.50;99.90
51996;DHT22;38010;53.264;6.592;2022-12-29T09:54:00;13.60;99.90
51996;DHT22;38010;53.264;6.592;2022-12-29T09:56:27;13.60;99.90
51996;DHT22;38010;53.264;6.592;2022-12-29T09:59:12;13.60;99.90
51996;DHT22;38010;53.264;6.592;2022-12-29T10:01:49;13.60;99.90
51996;DHT22;38010;53.264;6.592;2022-12-29T10:04:17;13.60;99.90
51996;DHT22;38010;53.264;6.592;2022-12-29T10:07:08;13.70;99.90
51996;DHT22;38010;53.264;6.592;2022-12-29T10:09:48;13.70;99.90
51996;DHT22;38010;53.264;6.592;2022-12-29T10:21:13;13.70;99.90
51996;DHT22;38010;53.264;6.592;2022-12-29T10:23:52;13.70;99.90
51996;DHT22;38010;53.264;6.592;2022-12-29T10:26:26;13.70;99.90
51996;DHT22;38010;53.264;6.592;2022-12-29T10:28:58;13.70;99.90
51996;DHT22;38010;53.264;6.592;2022-12-29T10:34:24;13.70;99.90
51996;DHT22;38010;53.264;6.592;2022-12-29T10:36:57;13.70;99.90
51996;DHT22;38010;53.264;6.592;2022-12-29T10:39:35;13.60;99.90
51996;DHT22;38010;53.264;6.592;2022-12-29T10:44:46;13.60;99.90
51996;DHT22;38010;53.264;6.592;2022-12-29T10:47:17;13.60;99.90
51996;DHT22;38010;53.264;6.592;2022-12-29T10:49:45;13.60;99.90
51996;DHT22;38010;53.264;6.592;2022-12-29T10:52:13;13.60;99.90
51996;DHT22;38010;53.264;6.592;2022-12-29T10:54:55;13.60;99.90
51996;DHT22;38010;53.264;6.592;2022-12-29T10:57:31;13.50;99.90
51996;DHT22;38010;53.264;6.592;2022-12-29T10:59:58;13.60;99.90
51996;DHT22;38010;53.264;6.592;2022-12-29T11:05:54;13.60;99.90
51996;DHT22;38010;53.264;6.592;2022-12-29T11:08:22;13.60;99.90
51996;DHT22;38010;53.264;6.592;2022-12-29T11:10:59;13.60;99.90
51996;DHT22;38010;53.264;6.592;2022-12-29T11:13:29;13.50;99.90
51996;DHT22;38010;53.264;6.592;2022-12-29T11:15:54;13.60;99.90
51996;DHT22;38010;53.264;6.592;2022-12-29T11:20:50;13.60;99.90
51996;DHT22;38010;53.264;6.592;2022-12-29T11:26:22;13.60;99.90
51996;DHT22;38010;53.264;6.592;2022-12-29T11:31:43;13.60;99.90
51996;DHT22;38010;53.264;6.592;2022-12-29T11:34:20;13.60;99.90
51996;DHT22;38010;53.264;6.592;2022-12-29T11:36:47;13.60;99.90
51996;DHT22;38010;53.264;6.592;2022-12-29T11:39:38;13.60;99.90
51996;DHT22;38010;53.264;6.592;2022-12-29T11:42:06;13.60;99.90
51996;DHT22;38010;53.264;6.592;2022-12-29T11:44:37;13.60;99.90
51996;DHT22;38010;53.264;6.592;2022-12-29T11:47:11;13.60;99.90
51996;DHT22;38010;53.264;6.592;2022-12-29T11:49:38;13.60;99.90
51996;DHT22;38010;53.264;6.592;2022-12-29T11:52:04;13.60;99.90
51996;DHT22;38010;53.264;6.592;2022-12-29T11:54:36;13.60;99.90
51996;DHT22;38010;53.264;6.592;2022-12-29T11:57:12;13.60;99.90
51996;DHT22;38010;53.264;6.592;2022-12-29T11:59:53;13.70;99.90
51996;DHT22;38010;53.264;6.592;2022-12-29T12:04:59;13.70;99.90
51996;DHT22;38010;53.264;6.592;2022-12-29T12:07:42;13.70;99.90
51996;DHT22;38010;53.264;6.592;2022-12-29T12:10:36;13.70;99.90
51996;DHT22;38010;53.264;6.592;2022-12-29T12:18:49;13.80;99.90
51996;DHT22;38010;53.264;6.592;2022-12-29T12:21:22;13.80;99.90
51996;DHT22;38010;53.264;6.592;2022-12-29T12:24:10;13.80;99.90
51996;DHT22;38010;53.264;6.592;2022-12-29T12:27:03;13.80;99.90
51996;DHT22;38010;53.264;6.592;2022-12-29T12:41:13;13.80;99.90
51996;DHT22;38010;53.264;6.592;2022-12-29T12:44:02;13.80;99.90
51996;DHT22;38010;53.264;6.592;2022-12-29T12:55:18;13.80;99.90
51996;DHT22;38010;53.264;6.592;2022-12-29T13:04:12;13.80;99.90
51996;DHT22;38010;53.264;6.592;2022-12-29T13:19:52;13.80;99.90
51996;DHT22;38010;53.264;6.592;2022-12-29T13:22:44;13.80;99.90
51996;DHT22;38010;53.264;6.592;2022-12-29T13:28:06;13.80;99.90
51996;DHT22;38010;53.264;6.592;2022-12-29T13:36:58;13.80;99.90
51996;DHT22;38010;53.264;6.592;2022-12-29T13:39:26;13.70;99.90
51996;DHT22;38010;53.264;6.592;2022-12-29T13:41:55;13.70;99.90
51996;DHT22;38010;53.264;6.592;2022-12-29T13:44:43;13.70;99.90
51996;DHT22;38010;53.264;6.592;2022-12-29T13:49:42;13.70;99.90
51996;DHT22;38010;53.264;6.592;2022-12-29T13:55:36;13.70;99.90
51996;DHT22;38010;53.264;6.592;2022-12-29T14:00:53;13.70;99.90
51996;DHT22;38010;53.264;6.592;2022-12-29T14:03:46;13.80;99.90
51996;DHT22;38010;53.264;6.592;2022-12-29T14:06:29;13.80;99.90
51996;DHT22;38010;53.264;6.592;2022-12-29T14:08:58;13.80;99.90
51996;DHT22;38010;53.264;6.592;2022-12-29T14:11:33;13.80;99.90
51996;DHT22;38010;53.264;6.592;2022-12-29T14:14:11;13.80;99.90
51996;DHT22;38010;53.264;6.592;2022-12-29T14:16:37;13.80;99.90
51996;DHT22;38010;53.264;6.592;2022-12-29T14:19:25;13.80;99.90
51996;DHT22;38010;53.264;6.592;2022-12-29T14:22:04;13.80;99.90
51996;DHT22;38010;53.264;6.592;2022-12-29T14:34:54;13.80;99.90
51996;DHT22;38010;53.264;6.592;2022-12-29T14:37:28;13.80;99.90
51996;DHT22;38010;53.264;6.592;2022-12-29T14:40:17;13.80;99.90
51996;DHT22;38010;53.264;6.592;2022-12-29T14:42:47;13.80;99.90
51996;DHT22;38010;53.264;6.592;2022-12-29T14:47:59;13.80;99.90
51996;DHT22;38010;53.264;6.592;2022-12-29T14:50:42;13.80;99.90
51996;DHT22;38010;53.264;6.592;2022-12-29T14:53:43;13.80;99.90
51996;DHT22;38010;53.264;6.592;2022-12-29T14:56:11;13.80;99.90
51996;DHT22;38010;53.264;6.592;2022-12-29T14:59:01;13.80;99.90
51996;DHT22;38010;53.264;6.592;2022-12-29T15:01:42;13.80;99.90
51996;DHT22;38010;53.264;6.592;2022-12-29T15:04:21;13.80;99.90
51996;DHT22;38010;53.264;6.592;2022-12-29T15:06:49;13.70;99.90
51996;DHT22;38010;53.264;6.592;2022-12-29T15:09:36;13.70;99.90
51996;DHT22;38010;53.264;6.592;2022-12-29T15:12:45;13.80;99.90
51996;DHT22;38010;53.264;6.592;2022-12-29T15:15:23;13.70;99.90
51996;DHT22;38010;53.264;6.592;2022-12-29T15:17:49;13.70;99.90
51996;DHT22;38010;53.264;6.592;2022-12-29T15:23:32;13.70;99.90
51996;DHT22;38010;53.264;6.592;2022-12-29T15:25:55;13.70;99.90
51996;DHT22;38010;53.264;6.592;2022-12-29T15:28:22;13.70;99.90
51996;DHT22;38010;53.264;6.592;2022-12-29T15:31:11;13.70;99.90
51996;DHT22;38010;53.264;6.592;2022-12-29T15:33:40;13.70;99.90
51996;DHT22;38010;53.264;6.592;2022-12-29T15:36:17;13.60;99.90
51996;DHT22;38010;53.264;6.592;2022-12-29T15:38:45;13.70;99.90
51996;DHT22;38010;53.264;6.592;2022-12-29T15:41:46;13.60;99.90
51996;DHT22;38010;53.264;6.592;2022-12-29T15:44:29;13.70;99.90
51996;DHT22;38010;53.264;6.592;2022-12-29T15:47:01;13.60;99.90
51996;DHT22;38010;53.264;6.592;2022-12-29T15:49:28;13.60;99.90
51996;DHT22;38010;53.264;6.592;2022-12-29T15:51:53;13.60;99.90
51996;DHT22;38010;53.264;6.592;2022-12-29T15:54:21;13.60;99.90
51996;DHT22;38010;53.264;6.592;2022-12-29T15:56:48;13.60;99.90
51996;DHT22;38010;53.264;6.592;2022-12-29T15:59:34;13.60;99.90
51996;DHT22;38010;53.264;6.592;2022-12-29T16:02:01;13.60;99.90
51996;DHT22;38010;53.264;6.592;2022-12-29T16:04:30;13.60;99.90
51996;DHT22;38010;53.264;6.592;2022-12-29T16:07:00;13.60;99.90
51996;DHT22;38010;53.264;6.592;2022-12-29T16:09:43;13.60;99.90
51996;DHT22;38010;53.264;6.592;2022-12-29T16:12:21;13.70;99.90
51996;DHT22;38010;53.264;6.592;2022-12-29T16:14:53;13.60;99.90
51996;DHT22;38010;53.264;6.592;2022-12-29T16:17:27;13.70;99.90
51996;DHT22;38010;53.264;6.592;2022-12-29T16:19:57;13.70;99.90
51996;DHT22;38010;53.264;6.592;2022-12-29T16:22:38;13.70;99.90
51996;DHT22;38010;53.264;6.592;2022-12-29T16:25:30;13.80;99.90
51996;DHT22;38010;53.264;6.592;2022-12-29T16:27:58;13.80;99.90
51996;DHT22;38010;53.264;6.592;2022-12-29T16:30:31;13.80;99.90
51996;DHT22;38010;53.264;6.592;2022-12-29T16:32:59;13.90;99.90
51996;DHT22;38010;53.264;6.592;2022-12-29T16:35:48;13.90;99.90
51996;DHT22;38010;53.264;6.592;2022-12-29T16:38:20;13.90;99.90
51996;DHT22;38010;53.264;6.592;2022-12-29T16:40:59;13.90;99.90
51996;DHT22;38010;53.264;6.592;2022-12-29T16:43:34;13.90;99.90
51996;DHT22;38010;53.264;6.592;2022-12-29T16:46:15;13.90;99.90
51996;DHT22;38010;53.264;6.592;2022-12-29T16:48:48;13.90;99.90
51996;DHT22;38010;53.264;6.592;2022-12-29T16:51:18;13.90;99.90
51996;DHT22;38010;53.264;6.592;2022-12-29T16:53:50;13.90;99.90
51996;DHT22;38010;53.264;6.592;2022-12-29T16:56:22;13.90;99.90
51996;DHT22;38010;53.264;6.592;2022-12-29T16:59:03;13.90;99.90
51996;DHT22;38010;53.264;6.592;2022-12-29T17:01:30;13.90;99.90
51996;DHT22;38010;53.264;6.592;2022-12-29T17:04:04;13.90;99.90
51996;DHT22;38010;53.264;6.592;2022-12-29T17:08:57;13.90;99.90
51996;DHT22;38010;53.264;6.592;2022-12-29T17:11:29;13.90;99.90
51996;DHT22;38010;53.264;6.592;2022-12-29T17:14:43;13.80;99.90
51996;DHT22;38010;53.264;6.592;2022-12-29T17:17:29;13.80;99.90
51996;DHT22;38010;53.264;6.592;2022-12-29T17:19:57;13.80;99.90
51996;DHT22;38010;53.264;6.592;2022-12-29T17:22:26;13.80;99.90
51996;DHT22;38010;53.264;6.592;2022-12-29T17:24:54;13.80;99.90
51996;DHT22;38010;53.264;6.592;2022-12-29T17:27:35;13.80;99.90
51996;DHT22;38010;53.264;6.592;2022-12-29T17:30:05;13.80;99.90
51996;DHT22;38010;53.264;6.592;2022-12-29T17:32:34;13.80;99.90
51996;DHT22;38010;53.264;6.592;2022-12-29T17:35:00;13.80;99.90
51996;DHT22;38010;53.264;6.592;2022-12-29T17:37:35;13.80;99.90
51996;DHT22;38010;53.264;6.592;2022-12-29T17:40:02;13.80;99.90
51996;DHT22;38010;53.264;6.592;2022-12-29T17:42:28;13.80;99.90
51996;DHT22;38010;53.264;6.592;2022-12-29T17:44:58;13.80;99.90
51996;DHT22;38010;53.264;6.592;2022-12-29T17:47:24;13.80;99.90
51996;DHT22;38010;53.264;6.592;2022-12-29T17:49:49;13.80;99.90
51996;DHT22;38010;53.264;6.592;2022-12-29T17:52:16;13.70;99.90
51996;DHT22;38010;53.264;6.592;2022-12-29T17:54:46;13.70;99.90
51996;DHT22;38010;53.264;6.592;2022-12-29T17:57:14;13.80;99.90
51996;DHT22;38010;53.264;6.592;2022-12-29T17:59:41;13.70;99.90
51996;DHT22;38010;53.264;6.592;2022-12-29T18:02:24;13.70;99.90
51996;DHT22;38010;53.264;6.592;2022-12-29T18:04:51;13.70;99.90
51996;DHT22;38010;53.264;6.592;2022-12-29T18:07:17;13.70;99.90
51996;DHT22;38010;53.264;6.592;2022-12-29T18:09:43;13.70;99.90
51996;DHT22;38010;53.264;6.592;2022-12-29T18:12:32;13.70;99.90
51996;DHT22;38010;53.264;6.592;2022-12-29T18:14:59;13.70;99.90
51996;DHT22;38010;53.264;6.592;2022-12-29T18:17:25;13.70;99.90
51996;DHT22;38010;53.264;6.592;2022-12-29T18:19:51;13.70;99.90
51996;DHT22;38010;53.264;6.592;2022-12-29T18:22:20;13.70;99.90
51996;DHT22;38010;53.264;6.592;2022-12-29T18:24:46;13.80;99.90
51996;DHT22;38010;53.264;6.592;2022-12-29T18:27:15;13.70;99.90
51996;DHT22;38010;53.264;6.592;2022-12-29T18:29:42;13.60;99.90